sensor_id;sensor_type;location;lat;lon;timestamp;P1;durP1;ratioP1;P2;durP2;ratioP2
13083;SDS011;6608;48.790;9.198;2023-09-19T00:00:23;146.63;;;63.47;;
13083;SDS011;6608;48.790;9.198;2023-09-19T00:02:52;146.93;;;62.87;;
13083;SDS011;6608;48.790;9.198;2023-09-19T00:05:20;146.47;;;63.00;;
13083;SDS011;6608;48.790;9.198;2023-09-19T00:07:49;145.53;;;62.93;;
13083;SDS011;6608;48.790;9.198;2023-09-19T00:10:16;149.80;;;63.40;;
13083;SDS011;6608;48.790;9.198;2023-09-19T00:12:42;146.10;;;63.37;;
13083;SDS011;6608;48.790;9.198;2023-09-19T00:15:09;147.13;;;63.67;;
13083;SDS011;6608;48.790;9.198;2023-09-19T00:17:36;146.13;;;63.17;;
13083;SDS011;6608;48.790;9.198;2023-09-19T00:20:05;147.50;;;62.83;;
13083;SDS011;6608;48.790;9.198;2023-09-19T00:22:40;147.30;;;63.47;;
13083;SDS011;6608;48.790;9.198;2023-09-19T00:25:07;152.30;;;63.67;;
13083;SDS011;6608;48.790;9.198;2023-09-19T00:27:34;147.87;;;63.17;;
13083;SDS011;6608;48.790;9.198;2023-09-19T00:30:04;147.73;;;63.43;;
13083;SDS011;6608;48.790;9.198;2023-09-19T00:32:30;146.53;;;63.43;;
13083;SDS011;6608;48.790;9.198;2023-09-19T00:34:57;147.20;;;62.90;;
13083;SDS011;6608;48.790;9.198;2023-09-19T00:37:23;148.17;;;63.27;;
13083;SDS011;6608;48.790;9.198;2023-09-19T00:39:51;144.57;;;62.63;;
13083;SDS011;6608;48.790;9.198;2023-09-19T00:42:18;149.40;;;63.67;;
13083;SDS011;6608;48.790;9.198;2023-09-19T00:44:45;148.87;;;62.80;;
13083;SDS011;6608;48.790;9.198;2023-09-19T00:47:12;147.07;;;63.57;;
13083;SDS011;6608;48.790;9.198;2023-09-19T00:49:42;146.00;;;63.20;;
13083;SDS011;6608;48.790;9.198;2023-09-19T00:52:08;145.77;;;62.67;;
13083;SDS011;6608;48.790;9.198;2023-09-19T00:54:36;145.50;;;62.63;;
13083;SDS011;6608;48.790;9.198;2023-09-19T00:57:04;146.17;;;63.03;;
13083;SDS011;6608;48.790;9.198;2023-09-19T00:59:32;146.73;;;62.87;;
13083;SDS011;6608;48.790;9.198;2023-09-19T01:02:00;146.30;;;62.33;;
13083;SDS011;6608;48.790;9.198;2023-09-19T01:04:27;147.10;;;62.77;;
13083;SDS011;6608;48.790;9.198;2023-09-19T01:06:53;147.37;;;63.03;;
13083;SDS011;6608;48.790;9.198;2023-09-19T01:09:20;145.73;;;62.77;;
13083;SDS011;6608;48.790;9.198;2023-09-19T01:11:47;144.00;;;62.30;;
13083;SDS011;6608;48.790;9.198;2023-09-19T01:14:23;145.60;;;62.67;;
13083;SDS011;6608;48.790;9.198;2023-09-19T01:16:55;144.87;;;62.60;;
13083;SDS011;6608;48.790;9.198;2023-09-19T01:19:33;148.63;;;63.37;;
13083;SDS011;6608;48.790;9.198;2023-09-19T01:22:11;145.80;;;62.37;;
13083;SDS011;6608;48.790;9.198;2023-09-19T01:24:54;144.87;;;62.63;;
13083;SDS011;6608;48.790;9.198;2023-09-19T01:27:41;144.20;;;62.03;;
13083;SDS011;6608;48.790;9.198;2023-09-19T01:30:13;145.63;;;63.23;;
13083;SDS011;6608;48.790;9.198;2023-09-19T01:32:40;146.73;;;62.60;;
13083;SDS011;6608;48.790;9.198;2023-09-19T01:35:08;145.73;;;63.10;;
13083;SDS011;6608;48.790;9.198;2023-09-19T01:37:37;145.23;;;62.80;;
13083;SDS011;6608;48.790;9.198;2023-09-19T01:40:05;147.90;;;62.47;;
13083;SDS011;6608;48.790;9.198;2023-09-19T01:42:43;144.47;;;62.43;;
13083;SDS011;6608;48.790;9.198;2023-09-19T01:45:11;144.77;;;62.70;;
13083;SDS011;6608;48.790;9.198;2023-09-19T01:47:41;147.57;;;63.20;;
13083;SDS011;6608;48.790;9.198;2023-09-19T01:50:12;147.43;;;62.80;;
13083;SDS011;6608;48.790;9.198;2023-09-19T01:52:42;144.23;;;62.13;;
13083;SDS011;6608;48.790;9.198;2023-09-19T01:55:10;143.53;;;61.90;;
13083;SDS011;6608;48.790;9.198;2023-09-19T01:57:40;145.10;;;62.33;;
13083;SDS011;6608;48.790;9.198;2023-09-19T02:00:09;145.70;;;63.17;;
13083;SDS011;6608;48.790;9.198;2023-09-19T02:02:37;143.33;;;62.17;;
13083;SDS011;6608;48.790;9.198;2023-09-19T02:05:05;147.23;;;63.83;;
13083;SDS011;6608;48.790;9.198;2023-09-19T02:07:32;144.70;;;62.30;;
13083;SDS011;6608;48.790;9.198;2023-09-19T02:09:58;143.83;;;62.07;;
13083;SDS011;6608;48.790;9.198;2023-09-19T02:12:25;144.97;;;62.40;;
13083;SDS011;6608;48.790;9.198;2023-09-19T02:14:52;143.90;;;62.10;;
13083;SDS011;6608;48.790;9.198;2023-09-19T02:17:18;145.43;;;62.80;;
13083;SDS011;6608;48.790;9.198;2023-09-19T02:19:45;144.83;;;62.37;;
13083;SDS011;6608;48.790;9.198;2023-09-19T02:22:13;147.00;;;63.43;;
13083;SDS011;6608;48.790;9.198;2023-09-19T02:24:41;145.90;;;62.80;;
13083;SDS011;6608;48.790;9.198;2023-09-19T02:27:07;144.37;;;62.57;;
13083;SDS011;6608;48.790;9.198;2023-09-19T02:29:34;144.90;;;62.73;;
13083;SDS011;6608;48.790;9.198;2023-09-19T02:32:00;144.87;;;62.67;;
13083;SDS011;6608;48.790;9.198;2023-09-19T02:34:26;145.10;;;62.77;;
13083;SDS011;6608;48.790;9.198;2023-09-19T02:36:53;147.87;;;63.27;;
13083;SDS011;6608;48.790;9.198;2023-09-19T02:39:21;147.43;;;62.17;;
13083;SDS011;6608;48.790;9.198;2023-09-19T02:41:48;145.83;;;63.47;;
13083;SDS011;6608;48.790;9.198;2023-09-19T02:44:15;143.80;;;62.27;;
13083;SDS011;6608;48.790;9.198;2023-09-19T02:46:41;143.00;;;62.07;;
13083;SDS011;6608;48.790;9.198;2023-09-19T02:49:08;144.37;;;62.30;;
13083;SDS011;6608;48.790;9.198;2023-09-19T02:51:34;145.57;;;63.23;;
13083;SDS011;6608;48.790;9.198;2023-09-19T02:54:01;148.23;;;62.60;;
13083;SDS011;6608;48.790;9.198;2023-09-19T02:56:30;143.87;;;62.40;;
13083;SDS011;6608;48.790;9.198;2023-09-19T02:58:57;147.43;;;62.43;;
13083;SDS011;6608;48.790;9.198;2023-09-19T03:01:25;145.10;;;62.63;;
13083;SDS011;6608;48.790;9.198;2023-09-19T03:03:52;145.87;;;62.70;;
13083;SDS011;6608;48.790;9.198;2023-09-19T03:06:19;143.87;;;62.30;;
13083;SDS011;6608;48.790;9.198;2023-09-19T03:08:45;144.67;;;62.57;;
13083;SDS011;6608;48.790;9.198;2023-09-19T03:11:14;144.27;;;61.63;;
13083;SDS011;6608;48.790;9.198;2023-09-19T03:13:42;143.80;;;62.00;;
13083;SDS011;6608;48.790;9.198;2023-09-19T03:16:09;143.87;;;62.23;;
13083;SDS011;6608;48.790;9.198;2023-09-19T03:18:36;143.90;;;62.30;;
13083;SDS011;6608;48.790;9.198;2023-09-19T03:21:02;144.73;;;62.50;;
13083;SDS011;6608;48.790;9.198;2023-09-19T03:23:29;145.93;;;61.87;;
13083;SDS011;6608;48.790;9.198;2023-09-19T03:25:55;142.63;;;61.80;;
13083;SDS011;6608;48.790;9.198;2023-09-19T03:28:24;143.60;;;62.23;;
13083;SDS011;6608;48.790;9.198;2023-09-19T03:31:01;145.77;;;62.40;;
13083;SDS011;6608;48.790;9.198;2023-09-19T03:33:28;146.47;;;62.30;;
13083;SDS011;6608;48.790;9.198;2023-09-19T03:35:56;143.60;;;62.00;;
13083;SDS011;6608;48.790;9.198;2023-09-19T03:38:24;144.80;;;62.77;;
13083;SDS011;6608;48.790;9.198;2023-09-19T03:40:50;143.40;;;62.23;;
13083;SDS011;6608;48.790;9.198;2023-09-19T03:43:17;144.30;;;62.47;;
13083;SDS011;6608;48.790;9.198;2023-09-19T03:45:44;147.77;;;62.87;;
13083;SDS011;6608;48.790;9.198;2023-09-19T03:48:13;144.20;;;62.10;;
13083;SDS011;6608;48.790;9.198;2023-09-19T03:50:39;144.43;;;62.63;;
13083;SDS011;6608;48.790;9.198;2023-09-19T03:53:05;144.60;;;62.07;;
13083;SDS011;6608;48.790;9.198;2023-09-19T03:55:32;143.70;;;62.10;;
13083;SDS011;6608;48.790;9.198;2023-09-19T03:58:00;145.33;;;62.80;;
13083;SDS011;6608;48.790;9.198;2023-09-19T04:00:26;145.70;;;62.90;;
13083;SDS011;6608;48.790;9.198;2023-09-19T04:02:54;145.30;;;62.03;;
13083;SDS011;6608;48.790;9.198;2023-09-19T04:05:23;144.93;;;62.60;;
13083;SDS011;6608;48.790;9.198;2023-09-19T04:07:49;147.93;;;62.80;;
13083;SDS011;6608;48.790;9.198;2023-09-19T04:10:16;146.57;;;62.13;;
13083;SDS011;6608;48.790;9.198;2023-09-19T04:12:50;144.90;;;63.00;;
13083;SDS011;6608;48.790;9.198;2023-09-19T04:15:16;146.43;;;63.00;;
13083;SDS011;6608;48.790;9.198;2023-09-19T04:17:43;144.90;;;62.63;;
13083;SDS011;6608;48.790;9.198;2023-09-19T04:20:09;144.33;;;63.10;;
13083;SDS011;6608;48.790;9.198;2023-09-19T04:22:38;142.07;;;61.80;;
13083;SDS011;6608;48.790;9.198;2023-09-19T04:25:05;145.30;;;62.43;;
13083;SDS011;6608;48.790;9.198;2023-09-19T04:27:33;144.37;;;62.80;;
13083;SDS011;6608;48.790;9.198;2023-09-19T04:29:59;145.03;;;62.50;;
13083;SDS011;6608;48.790;9.198;2023-09-19T04:32:34;145.13;;;62.67;;
13083;SDS011;6608;48.790;9.198;2023-09-19T04:35:01;147.07;;;62.83;;
13083;SDS011;6608;48.790;9.198;2023-09-19T04:37:30;150.70;;;64.47;;
13083;SDS011;6608;48.790;9.198;2023-09-19T04:39:59;146.03;;;62.73;;
13083;SDS011;6608;48.790;9.198;2023-09-19T04:42:25;149.13;;;63.70;;
13083;SDS011;6608;48.790;9.198;2023-09-19T04:44:52;146.03;;;62.57;;
13083;SDS011;6608;48.790;9.198;2023-09-19T04:47:19;146.93;;;63.10;;
13083;SDS011;6608;48.790;9.198;2023-09-19T04:49:46;144.73;;;62.50;;
13083;SDS011;6608;48.790;9.198;2023-09-19T04:52:12;144.40;;;62.30;;
13083;SDS011;6608;48.790;9.198;2023-09-19T04:54:40;145.97;;;62.93;;
13083;SDS011;6608;48.790;9.198;2023-09-19T04:57:08;143.80;;;62.23;;
13083;SDS011;6608;48.790;9.198;2023-09-19T04:59:35;146.23;;;63.30;;
13083;SDS011;6608;48.790;9.198;2023-09-19T05:02:01;149.13;;;66.47;;
13083;SDS011;6608;48.790;9.198;2023-09-19T05:04:28;149.60;;;64.40;;
13083;SDS011;6608;48.790;9.198;2023-09-19T05:06:54;143.73;;;61.93;;
13083;SDS011;6608;48.790;9.198;2023-09-19T05:09:21;147.83;;;63.60;;
13083;SDS011;6608;48.790;9.198;2023-09-19T05:11:47;146.13;;;63.23;;
13083;SDS011;6608;48.790;9.198;2023-09-19T05:14:15;145.53;;;62.93;;
13083;SDS011;6608;48.790;9.198;2023-09-19T05:16:42;146.77;;;63.63;;
13083;SDS011;6608;48.790;9.198;2023-09-19T05:19:08;148.10;;;63.40;;
13083;SDS011;6608;48.790;9.198;2023-09-19T05:21:36;149.03;;;63.60;;
13083;SDS011;6608;48.790;9.198;2023-09-19T05:24:04;145.20;;;62.37;;
13083;SDS011;6608;48.790;9.198;2023-09-19T05:26:31;145.70;;;62.73;;
13083;SDS011;6608;48.790;9.198;2023-09-19T05:28:57;153.67;;;63.53;;
13083;SDS011;6608;48.790;9.198;2023-09-19T05:31:25;146.40;;;62.30;;
13083;SDS011;6608;48.790;9.198;2023-09-19T05:33:52;147.77;;;63.23;;
13083;SDS011;6608;48.790;9.198;2023-09-19T05:36:19;148.98;;;63.05;;
13083;SDS011;6608;48.790;9.198;2023-09-19T05:38:46;148.53;;;64.73;;
13083;SDS011;6608;48.790;9.198;2023-09-19T05:41:15;147.53;;;63.03;;
13083;SDS011;6608;48.790;9.198;2023-09-19T05:43:43;152.33;;;63.47;;
13083;SDS011;6608;48.790;9.198;2023-09-19T05:46:09;146.67;;;62.83;;
13083;SDS011;6608;48.790;9.198;2023-09-19T05:48:37;146.57;;;62.53;;
13083;SDS011;6608;48.790;9.198;2023-09-19T05:51:04;151.43;;;64.83;;
13083;SDS011;6608;48.790;9.198;2023-09-19T05:53:31;146.47;;;62.40;;
13083;SDS011;6608;48.790;9.198;2023-09-19T05:55:57;147.10;;;62.77;;
13083;SDS011;6608;48.790;9.198;2023-09-19T05:58:26;148.37;;;62.50;;
13083;SDS011;6608;48.790;9.198;2023-09-19T06:00:52;146.10;;;62.77;;
13083;SDS011;6608;48.790;9.198;2023-09-19T06:03:21;146.17;;;62.33;;
13083;SDS011;6608;48.790;9.198;2023-09-19T06:05:48;149.50;;;62.43;;
13083;SDS011;6608;48.790;9.198;2023-09-19T06:08:16;146.47;;;62.17;;
13083;SDS011;6608;48.790;9.198;2023-09-19T06:10:42;148.40;;;63.20;;
13083;SDS011;6608;48.790;9.198;2023-09-19T06:16:06;147.80;;;62.27;;
13083;SDS011;6608;48.790;9.198;2023-09-19T06:18:34;151.60;;;64.67;;
13083;SDS011;6608;48.790;9.198;2023-09-19T06:21:02;149.47;;;62.60;;
13083;SDS011;6608;48.790;9.198;2023-09-19T06:23:32;145.20;;;62.20;;
13083;SDS011;6608;48.790;9.198;2023-09-19T06:25:59;146.70;;;62.00;;
13083;SDS011;6608;48.790;9.198;2023-09-19T06:28:25;145.53;;;62.23;;
13083;SDS011;6608;48.790;9.198;2023-09-19T06:30:53;147.17;;;62.57;;
13083;SDS011;6608;48.790;9.198;2023-09-19T06:33:20;146.40;;;62.37;;
13083;SDS011;6608;48.790;9.198;2023-09-19T06:35:46;150.43;;;63.03;;
13083;SDS011;6608;48.790;9.198;2023-09-19T06:38:14;146.50;;;62.40;;
13083;SDS011;6608;48.790;9.198;2023-09-19T06:40:44;146.20;;;62.17;;
13083;SDS011;6608;48.790;9.198;2023-09-19T06:43:10;149.40;;;62.67;;
13083;SDS011;6608;48.790;9.198;2023-09-19T06:45:37;151.00;;;64.03;;
13083;SDS011;6608;48.790;9.198;2023-09-19T06:48:04;148.77;;;63.43;;
13083;SDS011;6608;48.790;9.198;2023-09-19T06:50:30;149.00;;;63.73;;
13083;SDS011;6608;48.790;9.198;2023-09-19T06:52:58;149.80;;;63.83;;
13083;SDS011;6608;48.790;9.198;2023-09-19T06:55:27;162.10;;;71.93;;
13083;SDS011;6608;48.790;9.198;2023-09-19T06:57:56;150.73;;;65.23;;
13083;SDS011;6608;48.790;9.198;2023-09-19T07:00:23;149.87;;;64.03;;
13083;SDS011;6608;48.790;9.198;2023-09-19T07:02:56;146.97;;;63.50;;
13083;SDS011;6608;48.790;9.198;2023-09-19T07:05:23;147.80;;;62.40;;
13083;SDS011;6608;48.790;9.198;2023-09-19T07:07:50;146.33;;;63.47;;
13083;SDS011;6608;48.790;9.198;2023-09-19T07:10:17;154.90;;;68.10;;
13083;SDS011;6608;48.790;9.198;2023-09-19T07:12:46;147.53;;;63.73;;
13083;SDS011;6608;48.790;9.198;2023-09-19T07:15:13;148.70;;;64.03;;
13083;SDS011;6608;48.790;9.198;2023-09-19T07:17:39;149.03;;;64.57;;
13083;SDS011;6608;48.790;9.198;2023-09-19T07:20:06;148.97;;;65.50;;
13083;SDS011;6608;48.790;9.198;2023-09-19T07:22:33;145.47;;;62.93;;
13083;SDS011;6608;48.790;9.198;2023-09-19T07:24:59;146.93;;;63.73;;
13083;SDS011;6608;48.790;9.198;2023-09-19T07:27:26;148.43;;;63.80;;
13083;SDS011;6608;48.790;9.198;2023-09-19T07:29:53;148.50;;;64.43;;
13083;SDS011;6608;48.790;9.198;2023-09-19T07:32:20;149.37;;;64.20;;
13083;SDS011;6608;48.790;9.198;2023-09-19T07:34:46;149.10;;;65.07;;
13083;SDS011;6608;48.790;9.198;2023-09-19T07:37:13;148.40;;;64.30;;
13083;SDS011;6608;48.790;9.198;2023-09-19T07:39:40;151.27;;;64.83;;
13083;SDS011;6608;48.790;9.198;2023-09-19T07:42:11;148.10;;;65.93;;
13083;SDS011;6608;48.790;9.198;2023-09-19T07:44:43;148.13;;;64.10;;
13083;SDS011;6608;48.790;9.198;2023-09-19T07:47:13;150.87;;;64.43;;
13083;SDS011;6608;48.790;9.198;2023-09-19T07:49:39;147.57;;;63.60;;
13083;SDS011;6608;48.790;9.198;2023-09-19T07:52:07;149.23;;;63.83;;
13083;SDS011;6608;48.790;9.198;2023-09-19T07:54:34;149.27;;;65.47;;
13083;SDS011;6608;48.790;9.198;2023-09-19T07:57:01;148.43;;;64.37;;
13083;SDS011;6608;48.790;9.198;2023-09-19T07:59:28;150.10;;;65.40;;
13083;SDS011;6608;48.790;9.198;2023-09-19T08:01:54;152.80;;;64.13;;
13083;SDS011;6608;48.790;9.198;2023-09-19T08:04:22;150.27;;;64.40;;
13083;SDS011;6608;48.790;9.198;2023-09-19T08:06:51;153.80;;;64.80;;
13083;SDS011;6608;48.790;9.198;2023-09-19T08:09:18;155.33;;;66.17;;
13083;SDS011;6608;48.790;9.198;2023-09-19T08:11:45;155.30;;;69.03;;
13083;SDS011;6608;48.790;9.198;2023-09-19T08:14:12;155.03;;;66.23;;
13083;SDS011;6608;48.790;9.198;2023-09-19T08:16:39;151.43;;;65.77;;
13083;SDS011;6608;48.790;9.198;2023-09-19T08:19:07;152.33;;;66.60;;
13083;SDS011;6608;48.790;9.198;2023-09-19T08:21:35;152.73;;;66.17;;
13083;SDS011;6608;48.790;9.198;2023-09-19T08:24:02;152.40;;;67.10;;
13083;SDS011;6608;48.790;9.198;2023-09-19T08:26:30;155.37;;;68.00;;
13083;SDS011;6608;48.790;9.198;2023-09-19T08:28:57;156.00;;;70.27;;
13083;SDS011;6608;48.790;9.198;2023-09-19T08:31:23;157.87;;;71.67;;
13083;SDS011;6608;48.790;9.198;2023-09-19T08:33:51;151.73;;;67.90;;
13083;SDS011;6608;48.790;9.198;2023-09-19T08:36:18;153.57;;;68.07;;
13083;SDS011;6608;48.790;9.198;2023-09-19T08:38:46;164.50;;;77.07;;
13083;SDS011;6608;48.790;9.198;2023-09-19T08:41:14;156.70;;;69.20;;
13083;SDS011;6608;48.790;9.198;2023-09-19T08:43:43;152.43;;;67.87;;
13083;SDS011;6608;48.790;9.198;2023-09-19T08:46:14;154.73;;;68.67;;
13083;SDS011;6608;48.790;9.198;2023-09-19T08:48:44;154.63;;;70.47;;
13083;SDS011;6608;48.790;9.198;2023-09-19T08:51:18;156.47;;;70.87;;
13083;SDS011;6608;48.790;9.198;2023-09-19T08:53:50;153.80;;;67.90;;
13083;SDS011;6608;48.790;9.198;2023-09-19T08:56:18;154.27;;;69.17;;
13083;SDS011;6608;48.790;9.198;2023-09-19T08:58:45;157.93;;;69.37;;
13083;SDS011;6608;48.790;9.198;2023-09-19T09:01:13;153.63;;;68.23;;
13083;SDS011;6608;48.790;9.198;2023-09-19T09:03:40;153.17;;;68.23;;
13083;SDS011;6608;48.790;9.198;2023-09-19T09:06:08;151.63;;;67.97;;
13083;SDS011;6608;48.790;9.198;2023-09-19T09:08:38;154.43;;;68.53;;
13083;SDS011;6608;48.790;9.198;2023-09-19T09:11:06;152.30;;;68.50;;
13083;SDS011;6608;48.790;9.198;2023-09-19T09:13:34;151.77;;;68.23;;
13083;SDS011;6608;48.790;9.198;2023-09-19T09:16:01;152.70;;;68.60;;
13083;SDS011;6608;48.790;9.198;2023-09-19T09:18:28;152.93;;;68.80;;
13083;SDS011;6608;48.790;9.198;2023-09-19T09:20:56;150.07;;;67.87;;
13083;SDS011;6608;48.790;9.198;2023-09-19T09:23:23;151.70;;;69.17;;
13083;SDS011;6608;48.790;9.198;2023-09-19T09:25:50;154.83;;;71.43;;
13083;SDS011;6608;48.790;9.198;2023-09-19T09:28:33;152.60;;;70.43;;
13083;SDS011;6608;48.790;9.198;2023-09-19T09:31:00;149.73;;;68.03;;
13083;SDS011;6608;48.790;9.198;2023-09-19T09:33:28;149.80;;;67.80;;
13083;SDS011;6608;48.790;9.198;2023-09-19T09:35:56;149.30;;;68.27;;
13083;SDS011;6608;48.790;9.198;2023-09-19T09:38:24;150.90;;;69.47;;
13083;SDS011;6608;48.790;9.198;2023-09-19T09:40:53;152.27;;;69.40;;
13083;SDS011;6608;48.790;9.198;2023-09-19T09:43:25;152.63;;;68.93;;
13083;SDS011;6608;48.790;9.198;2023-09-19T09:46:06;150.73;;;68.60;;
13083;SDS011;6608;48.790;9.198;2023-09-19T09:48:56;150.20;;;68.93;;
13083;SDS011;6608;48.790;9.198;2023-09-19T09:51:41;148.87;;;68.63;;
13083;SDS011;6608;48.790;9.198;2023-09-19T09:54:09;152.90;;;70.23;;
13083;SDS011;6608;48.790;9.198;2023-09-19T09:56:41;151.47;;;70.50;;
13083;SDS011;6608;48.790;9.198;2023-09-19T09:59:18;151.87;;;69.87;;
13083;SDS011;6608;48.790;9.198;2023-09-19T10:01:50;151.03;;;68.97;;
13083;SDS011;6608;48.790;9.198;2023-09-19T10:04:27;151.80;;;69.60;;
13083;SDS011;6608;48.790;9.198;2023-09-19T10:06:55;153.90;;;70.50;;
13083;SDS011;6608;48.790;9.198;2023-09-19T10:09:23;151.93;;;69.50;;
13083;SDS011;6608;48.790;9.198;2023-09-19T10:12:05;150.17;;;69.47;;
13083;SDS011;6608;48.790;9.198;2023-09-19T10:14:34;150.47;;;69.70;;
13083;SDS011;6608;48.790;9.198;2023-09-19T10:17:04;150.40;;;69.60;;
13083;SDS011;6608;48.790;9.198;2023-09-19T10:19:33;153.45;;;72.25;;
13083;SDS011;6608;48.790;9.198;2023-09-19T10:22:02;150.77;;;69.33;;
13083;SDS011;6608;48.790;9.198;2023-09-19T10:24:30;151.30;;;68.77;;
13083;SDS011;6608;48.790;9.198;2023-09-19T10:26:59;152.10;;;68.30;;
13083;SDS011;6608;48.790;9.198;2023-09-19T10:29:26;152.70;;;68.47;;
13083;SDS011;6608;48.790;9.198;2023-09-19T10:31:56;157.20;;;71.30;;
13083;SDS011;6608;48.790;9.198;2023-09-19T10:34:26;152.57;;;67.47;;
13083;SDS011;6608;48.790;9.198;2023-09-19T10:36:53;153.83;;;68.83;;
13083;SDS011;6608;48.790;9.198;2023-09-19T10:39:20;153.30;;;68.53;;
13083;SDS011;6608;48.790;9.198;2023-09-19T10:41:49;151.20;;;69.63;;
13083;SDS011;6608;48.790;9.198;2023-09-19T10:44:19;151.13;;;69.03;;
13083;SDS011;6608;48.790;9.198;2023-09-19T10:46:47;153.83;;;70.10;;
13083;SDS011;6608;48.790;9.198;2023-09-19T10:49:14;150.50;;;68.70;;
13083;SDS011;6608;48.790;9.198;2023-09-19T10:51:42;151.17;;;69.40;;
13083;SDS011;6608;48.790;9.198;2023-09-19T10:54:10;149.50;;;69.10;;
13083;SDS011;6608;48.790;9.198;2023-09-19T10:56:38;149.57;;;69.50;;
13083;SDS011;6608;48.790;9.198;2023-09-19T10:59:10;150.73;;;70.33;;
13083;SDS011;6608;48.790;9.198;2023-09-19T11:01:41;153.43;;;71.57;;
13083;SDS011;6608;48.790;9.198;2023-09-19T11:04:26;153.07;;;70.73;;
13083;SDS011;6608;48.790;9.198;2023-09-19T11:07:04;151.20;;;69.40;;
13083;SDS011;6608;48.790;9.198;2023-09-19T11:09:46;151.97;;;69.80;;
13083;SDS011;6608;48.790;9.198;2023-09-19T11:14:54;152.47;;;68.40;;
13083;SDS011;6608;48.790;9.198;2023-09-19T11:17:30;154.00;;;68.60;;
13083;SDS011;6608;48.790;9.198;2023-09-19T11:25:44;152.63;;;67.93;;
13083;SDS011;6608;48.790;9.198;2023-09-19T11:28:27;149.73;;;67.53;;
13083;SDS011;6608;48.790;9.198;2023-09-19T11:30:57;151.33;;;68.23;;
13083;SDS011;6608;48.790;9.198;2023-09-19T11:33:25;149.00;;;68.20;;
13083;SDS011;6608;48.790;9.198;2023-09-19T11:36:05;149.87;;;68.50;;
13083;SDS011;6608;48.790;9.198;2023-09-19T11:46:54;155.40;;;70.23;;
13083;SDS011;6608;48.790;9.198;2023-09-19T11:49:25;151.93;;;69.07;;
13083;SDS011;6608;48.790;9.198;2023-09-19T11:51:55;155.23;;;69.37;;
13083;SDS011;6608;48.790;9.198;2023-09-19T11:54:22;150.00;;;69.00;;
13083;SDS011;6608;48.790;9.198;2023-09-19T11:56:51;151.27;;;69.93;;
13083;SDS011;6608;48.790;9.198;2023-09-19T11:59:19;152.07;;;70.33;;
13083;SDS011;6608;48.790;9.198;2023-09-19T12:01:50;151.10;;;68.50;;
13083;SDS011;6608;48.790;9.198;2023-09-19T12:04:33;149.50;;;69.77;;
13083;SDS011;6608;48.790;9.198;2023-09-19T12:07:00;153.53;;;69.60;;
13083;SDS011;6608;48.790;9.198;2023-09-19T12:09:27;151.27;;;70.63;;
13083;SDS011;6608;48.790;9.198;2023-09-19T12:11:54;150.30;;;69.40;;
13083;SDS011;6608;48.790;9.198;2023-09-19T12:14:23;149.00;;;68.90;;
13083;SDS011;6608;48.790;9.198;2023-09-19T12:16:51;150.30;;;68.63;;
13083;SDS011;6608;48.790;9.198;2023-09-19T12:19:20;150.13;;;69.30;;
13083;SDS011;6608;48.790;9.198;2023-09-19T12:21:55;150.77;;;69.40;;
13083;SDS011;6608;48.790;9.198;2023-09-19T12:24:28;149.53;;;68.80;;
13083;SDS011;6608;48.790;9.198;2023-09-19T12:26:59;152.97;;;71.20;;
13083;SDS011;6608;48.790;9.198;2023-09-19T12:29:27;150.53;;;69.87;;
13083;SDS011;6608;48.790;9.198;2023-09-19T12:31:55;148.57;;;68.97;;
13083;SDS011;6608;48.790;9.198;2023-09-19T12:34:23;153.20;;;71.83;;
13083;SDS011;6608;48.790;9.198;2023-09-19T12:37:04;152.43;;;68.93;;
13083;SDS011;6608;48.790;9.198;2023-09-19T12:39:36;150.37;;;69.20;;
13083;SDS011;6608;48.790;9.198;2023-09-19T12:42:03;147.77;;;67.87;;
13083;SDS011;6608;48.790;9.198;2023-09-19T12:44:34;149.03;;;68.40;;
13083;SDS011;6608;48.790;9.198;2023-09-19T12:47:00;152.13;;;68.80;;
13083;SDS011;6608;48.790;9.198;2023-09-19T12:52:31;150.70;;;68.93;;
13083;SDS011;6608;48.790;9.198;2023-09-19T12:55:00;150.30;;;68.97;;
13083;SDS011;6608;48.790;9.198;2023-09-19T12:57:28;150.63;;;68.10;;
13083;SDS011;6608;48.790;9.198;2023-09-19T12:59:57;150.87;;;69.50;;
13083;SDS011;6608;48.790;9.198;2023-09-19T13:02:25;152.83;;;69.47;;
13083;SDS011;6608;48.790;9.198;2023-09-19T13:04:53;151.30;;;69.27;;
13083;SDS011;6608;48.790;9.198;2023-09-19T13:07:42;152.30;;;68.90;;
13083;SDS011;6608;48.790;9.198;2023-09-19T13:10:12;153.50;;;69.67;;
13083;SDS011;6608;48.790;9.198;2023-09-19T13:12:41;155.93;;;68.57;;
13083;SDS011;6608;48.790;9.198;2023-09-19T13:15:09;153.97;;;69.77;;
13083;SDS011;6608;48.790;9.198;2023-09-19T13:17:44;152.67;;;68.80;;
13083;SDS011;6608;48.790;9.198;2023-09-19T13:20:20;155.73;;;70.40;;
13083;SDS011;6608;48.790;9.198;2023-09-19T13:22:51;150.77;;;67.87;;
13083;SDS011;6608;48.790;9.198;2023-09-19T13:25:19;152.07;;;68.43;;
13083;SDS011;6608;48.790;9.198;2023-09-19T13:27:47;153.53;;;68.50;;
13083;SDS011;6608;48.790;9.198;2023-09-19T13:30:16;150.70;;;68.20;;
13083;SDS011;6608;48.790;9.198;2023-09-19T13:32:44;149.80;;;67.47;;
13083;SDS011;6608;48.790;9.198;2023-09-19T13:35:12;153.87;;;68.33;;
13083;SDS011;6608;48.790;9.198;2023-09-19T13:37:39;151.07;;;68.37;;
13083;SDS011;6608;48.790;9.198;2023-09-19T13:40:12;151.63;;;68.53;;
13083;SDS011;6608;48.790;9.198;2023-09-19T13:42:39;154.37;;;70.27;;
13083;SDS011;6608;48.790;9.198;2023-09-19T13:45:06;151.03;;;68.37;;
13083;SDS011;6608;48.790;9.198;2023-09-19T13:47:36;150.77;;;68.03;;
13083;SDS011;6608;48.790;9.198;2023-09-19T13:50:03;154.40;;;70.10;;
13083;SDS011;6608;48.790;9.198;2023-09-19T13:52:30;150.07;;;67.17;;
13083;SDS011;6608;48.790;9.198;2023-09-19T13:54:57;150.97;;;67.13;;
13083;SDS011;6608;48.790;9.198;2023-09-19T13:57:25;150.50;;;67.40;;
13083;SDS011;6608;48.790;9.198;2023-09-19T13:59:51;154.37;;;69.03;;
13083;SDS011;6608;48.790;9.198;2023-09-19T14:02:19;169.70;;;80.80;;
13083;SDS011;6608;48.790;9.198;2023-09-19T14:04:47;153.90;;;69.80;;
13083;SDS011;6608;48.790;9.198;2023-09-19T14:07:14;158.13;;;67.63;;
13083;SDS011;6608;48.790;9.198;2023-09-19T14:09:40;152.37;;;68.60;;
13083;SDS011;6608;48.790;9.198;2023-09-19T14:12:07;156.67;;;68.83;;
13083;SDS011;6608;48.790;9.198;2023-09-19T14:14:35;152.50;;;68.50;;
13083;SDS011;6608;48.790;9.198;2023-09-19T14:17:02;150.90;;;67.23;;
13083;SDS011;6608;48.790;9.198;2023-09-19T14:19:28;151.17;;;67.17;;
13083;SDS011;6608;48.790;9.198;2023-09-19T14:21:55;151.77;;;67.60;;
13083;SDS011;6608;48.790;9.198;2023-09-19T14:24:21;150.37;;;67.23;;
13083;SDS011;6608;48.790;9.198;2023-09-19T14:26:48;154.20;;;66.90;;
13083;SDS011;6608;48.790;9.198;2023-09-19T14:29:15;150.37;;;67.37;;
13083;SDS011;6608;48.790;9.198;2023-09-19T14:31:44;151.90;;;68.00;;
13083;SDS011;6608;48.790;9.198;2023-09-19T14:34:10;149.87;;;67.47;;
13083;SDS011;6608;48.790;9.198;2023-09-19T14:36:37;152.37;;;67.60;;
13083;SDS011;6608;48.790;9.198;2023-09-19T14:39:04;155.67;;;68.27;;
13083;SDS011;6608;48.790;9.198;2023-09-19T14:41:31;149.63;;;66.40;;
13083;SDS011;6608;48.790;9.198;2023-09-19T14:43:57;148.87;;;66.50;;
13083;SDS011;6608;48.790;9.198;2023-09-19T14:46:24;151.13;;;67.53;;
13083;SDS011;6608;48.790;9.198;2023-09-19T14:48:52;150.07;;;67.53;;
13083;SDS011;6608;48.790;9.198;2023-09-19T14:51:18;150.13;;;67.13;;